sensor_id;sensor_type;location;lat;lon;timestamp;temperature;humidity
38428;DHT22;24211;49.980;19.776;2024-02-26T00:01:34;9.40;99.90
38428;DHT22;24211;49.980;19.776;2024-02-26T00:04:02;9.40;99.90
38428;DHT22;24211;49.980;19.776;2024-02-26T00:06:30;9.30;99.90
38428;DHT22;24211;49.980;19.776;2024-02-26T00:09:23;9.30;99.90
38428;DHT22;24211;49.980;19.776;2024-02-26T00:11:50;9.30;99.90
38428;DHT22;24211;49.980;19.776;2024-02-26T00:14:38;9.20;99.90
38428;DHT22;24211;49.980;19.776;2024-02-26T00:17:06;9.20;99.90
38428;DHT22;24211;49.980;19.776;2024-02-26T00:19:35;9.10;99.90
38428;DHT22;24211;49.980;19.776;2024-02-26T00:22:03;9.10;99.90
38428;DHT22;24211;49.980;19.776;2024-02-26T00:24:30;9.10;99.90
38428;DHT22;24211;49.980;19.776;2024-02-26T00:26:58;9.00;99.90
38428;DHT22;24211;49.980;19.776;2024-02-26T00:29:26;9.00;99.90
38428;DHT22;24211;49.980;19.776;2024-02-26T00:31:53;9.00;99.90
38428;DHT22;24211;49.980;19.776;2024-02-26T00:34:45;8.90;99.90
38428;DHT22;24211;49.980;19.776;2024-02-26T00:40:18;8.80;99.90
38428;DHT22;24211;49.980;19.776;2024-02-26T00:42:46;8.80;99.90
38428;DHT22;24211;49.980;19.776;2024-02-26T00:45:15;8.70;99.90
38428;DHT22;24211;49.980;19.776;2024-02-26T00:47:59;8.70;99.90
38428;DHT22;24211;49.980;19.776;2024-02-26T00:51:12;8.70;99.90
38428;DHT22;24211;49.980;19.776;2024-02-26T00:53:40;8.60;99.90
38428;DHT22;24211;49.980;19.776;2024-02-26T00:59:51;8.50;99.90
38428;DHT22;24211;49.980;19.776;2024-02-26T01:02:18;8.50;99.90
38428;DHT22;24211;49.980;19.776;2024-02-26T01:04:59;8.40;99.90
38428;DHT22;24211;49.980;19.776;2024-02-26T01:07:26;8.40;99.90
38428;DHT22;24211;49.980;19.776;2024-02-26T01:09:54;8.40;99.90
38428;DHT22;24211;49.980;19.776;2024-02-26T01:12:25;8.40;99.90
38428;DHT22;24211;49.980;19.776;2024-02-26T01:15:21;8.30;99.90
38428;DHT22;24211;49.980;19.776;2024-02-26T01:17:51;8.30;99.90
38428;DHT22;24211;49.980;19.776;2024-02-26T01:20:50;8.30;99.90
38428;DHT22;24211;49.980;19.776;2024-02-26T01:23:44;8.20;99.90
38428;DHT22;24211;49.980;19.776;2024-02-26T01:26:11;8.10;99.90
38428;DHT22;24211;49.980;19.776;2024-02-26T01:29:03;8.00;99.90
38428;DHT22;24211;49.980;19.776;2024-02-26T01:31:56;8.00;99.90
38428;DHT22;24211;49.980;19.776;2024-02-26T01:34:37;8.00;99.90
38428;DHT22;24211;49.980;19.776;2024-02-26T01:37:05;8.00;99.90
38428;DHT22;24211;49.980;19.776;2024-02-26T01:46:39;7.90;99.90
38428;DHT22;24211;49.980;19.776;2024-02-26T01:49:08;7.80;99.90
38428;DHT22;24211;49.980;19.776;2024-02-26T01:51:39;7.80;99.90
38428;DHT22;24211;49.980;19.776;2024-02-26T01:54:09;7.70;99.90
38428;DHT22;24211;49.980;19.776;2024-02-26T01:56:40;7.70;99.90
38428;DHT22;24211;49.980;19.776;2024-02-26T01:59:08;7.70;99.90
38428;DHT22;24211;49.980;19.776;2024-02-26T02:01:36;7.70;99.90
38428;DHT22;24211;49.980;19.776;2024-02-26T02:04:14;7.60;99.90
38428;DHT22;24211;49.980;19.776;2024-02-26T02:10:05;7.60;99.90
38428;DHT22;24211;49.980;19.776;2024-02-26T02:12:36;7.60;99.90
38428;DHT22;24211;49.980;19.776;2024-02-26T02:18:45;7.40;99.90
38428;DHT22;24211;49.980;19.776;2024-02-26T02:21:12;7.40;99.90
38428;DHT22;24211;49.980;19.776;2024-02-26T02:23:39;7.40;99.90
38428;DHT22;24211;49.980;19.776;2024-02-26T02:26:07;7.40;99.90
38428;DHT22;24211;49.980;19.776;2024-02-26T02:28:35;7.30;99.90
38428;DHT22;24211;49.980;19.776;2024-02-26T02:31:06;7.20;99.90
38428;DHT22;24211;49.980;19.776;2024-02-26T02:33:34;7.20;99.90
38428;DHT22;24211;49.980;19.776;2024-02-26T02:40:14;7.20;99.90
38428;DHT22;24211;49.980;19.776;2024-02-26T02:42:42;7.20;99.90
38428;DHT22;24211;49.980;19.776;2024-02-26T02:45:29;7.10;99.90
38428;DHT22;24211;49.980;19.776;2024-02-26T02:51:55;7.00;99.90
38428;DHT22;24211;49.980;19.776;2024-02-26T02:54:28;7.00;99.90
38428;DHT22;24211;49.980;19.776;2024-02-26T02:56:55;6.90;99.90
38428;DHT22;24211;49.980;19.776;2024-02-26T03:03:06;6.80;99.90
38428;DHT22;24211;49.980;19.776;2024-02-26T03:05:59;6.80;99.90
38428;DHT22;24211;49.980;19.776;2024-02-26T03:12:30;6.80;99.90
38428;DHT22;24211;49.980;19.776;2024-02-26T03:14:57;6.70;99.90
38428;DHT22;24211;49.980;19.776;2024-02-26T03:17:24;6.70;99.90
38428;DHT22;24211;49.980;19.776;2024-02-26T03:20:08;6.70;99.90
38428;DHT22;24211;49.980;19.776;2024-02-26T03:25:56;6.60;99.90
38428;DHT22;24211;49.980;19.776;2024-02-26T03:28:42;6.60;99.90
38428;DHT22;24211;49.980;19.776;2024-02-26T03:31:09;6.60;99.90
38428;DHT22;24211;49.980;19.776;2024-02-26T03:33:37;6.50;99.90
38428;DHT22;24211;49.980;19.776;2024-02-26T03:36:05;6.50;99.90
38428;DHT22;24211;49.980;19.776;2024-02-26T03:38:34;6.40;99.90
38428;DHT22;24211;49.980;19.776;2024-02-26T03:41:01;6.40;99.90
38428;DHT22;24211;49.980;19.776;2024-02-26T03:43:29;6.40;99.90
38428;DHT22;24211;49.980;19.776;2024-02-26T03:45:56;6.40;99.90
38428;DHT22;24211;49.980;19.776;2024-02-26T03:48:49;6.30;99.90
38428;DHT22;24211;49.980;19.776;2024-02-26T03:51:31;6.30;99.90
38428;DHT22;24211;49.980;19.776;2024-02-26T03:53:58;6.30;99.90
38428;DHT22;24211;49.980;19.776;2024-02-26T03:56:50;6.30;99.90
38428;DHT22;24211;49.980;19.776;2024-02-26T03:59:18;6.30;99.90
38428;DHT22;24211;49.980;19.776;2024-02-26T04:01:46;6.20;99.90
38428;DHT22;24211;49.980;19.776;2024-02-26T04:04:46;6.20;99.90
38428;DHT22;24211;49.980;19.776;2024-02-26T04:07:28;6.20;99.90
38428;DHT22;24211;49.980;19.776;2024-02-26T04:09:55;6.20;99.90
38428;DHT22;24211;49.980;19.776;2024-02-26T04:12:23;6.10;99.90
38428;DHT22;24211;49.980;19.776;2024-02-26T04:14:50;6.00;99.90
38428;DHT22;24211;49.980;19.776;2024-02-26T04:17:18;6.00;99.90
38428;DHT22;24211;49.980;19.776;2024-02-26T04:19:45;6.00;99.90
38428;DHT22;24211;49.980;19.776;2024-02-26T04:22:13;6.00;99.90
38428;DHT22;24211;49.980;19.776;2024-02-26T04:25:08;6.00;99.90
38428;DHT22;24211;49.980;19.776;2024-02-26T04:27:36;5.90;99.90
38428;DHT22;24211;49.980;19.776;2024-02-26T04:30:05;5.90;99.90
38428;DHT22;24211;49.980;19.776;2024-02-26T04:32:34;5.90;99.90
38428;DHT22;24211;49.980;19.776;2024-02-26T04:35:13;5.90;99.90
38428;DHT22;24211;49.980;19.776;2024-02-26T04:37:52;5.80;99.90
38428;DHT22;24211;49.980;19.776;2024-02-26T04:40:31;5.80;99.90
38428;DHT22;24211;49.980;19.776;2024-02-26T04:42:58;5.80;99.90
38428;DHT22;24211;49.980;19.776;2024-02-26T04:45:32;5.80;99.90
38428;DHT22;24211;49.980;19.776;2024-02-26T04:48:45;5.80;99.90
38428;DHT22;24211;49.980;19.776;2024-02-26T04:51:31;5.70;99.90
38428;DHT22;24211;49.980;19.776;2024-02-26T04:53:58;5.70;99.90
38428;DHT22;24211;49.980;19.776;2024-02-26T04:56:51;5.60;99.90
38428;DHT22;24211;49.980;19.776;2024-02-26T04:59:18;5.60;99.90
38428;DHT22;24211;49.980;19.776;2024-02-26T05:01:45;5.60;99.90
38428;DHT22;24211;49.980;19.776;2024-02-26T05:04:13;5.60;99.90
38428;DHT22;24211;49.980;19.776;2024-02-26T05:06:41;5.60;99.90
38428;DHT22;24211;49.980;19.776;2024-02-26T05:09:09;5.60;99.90
38428;DHT22;24211;49.980;19.776;2024-02-26T05:11:40;5.60;99.90
38428;DHT22;24211;49.980;19.776;2024-02-26T05:14:09;5.60;99.90
38428;DHT22;24211;49.980;19.776;2024-02-26T05:17:01;5.60;99.90
38428;DHT22;24211;49.980;19.776;2024-02-26T05:19:35;5.60;99.90
38428;DHT22;24211;49.980;19.776;2024-02-26T05:22:03;5.60;99.90
38428;DHT22;24211;49.980;19.776;2024-02-26T05:24:30;5.60;99.90
38428;DHT22;24211;49.980;19.776;2024-02-26T05:26:57;5.50;99.90
38428;DHT22;24211;49.980;19.776;2024-02-26T05:29:28;5.50;99.90
38428;DHT22;24211;49.980;19.776;2024-02-26T05:32:19;5.50;99.90
38428;DHT22;24211;49.980;19.776;2024-02-26T05:35:30;5.60;99.90
38428;DHT22;24211;49.980;19.776;2024-02-26T05:38:06;5.60;99.90
38428;DHT22;24211;49.980;19.776;2024-02-26T05:40:37;5.50;99.90
38428;DHT22;24211;49.980;19.776;2024-02-26T05:43:14;5.50;99.90
38428;DHT22;24211;49.980;19.776;2024-02-26T05:45:49;5.50;99.90
38428;DHT22;24211;49.980;19.776;2024-02-26T05:48:16;5.50;99.90
38428;DHT22;24211;49.980;19.776;2024-02-26T05:50:55;5.50;99.90
38428;DHT22;24211;49.980;19.776;2024-02-26T05:53:23;5.50;99.90
38428;DHT22;24211;49.980;19.776;2024-02-26T05:56:00;5.50;99.90
38428;DHT22;24211;49.980;19.776;2024-02-26T05:58:28;5.40;99.90
38428;DHT22;24211;49.980;19.776;2024-02-26T06:01:23;5.50;99.90
38428;DHT22;24211;49.980;19.776;2024-02-26T06:03:53;5.40;99.90
38428;DHT22;24211;49.980;19.776;2024-02-26T06:06:47;5.40;99.90
38428;DHT22;24211;49.980;19.776;2024-02-26T06:09:14;5.30;99.90
38428;DHT22;24211;49.980;19.776;2024-02-26T06:11:42;5.30;99.90
38428;DHT22;24211;49.980;19.776;2024-02-26T06:14:10;5.40;99.90
38428;DHT22;24211;49.980;19.776;2024-02-26T06:16:39;5.30;99.90
38428;DHT22;24211;49.980;19.776;2024-02-26T06:19:15;5.40;99.90
38428;DHT22;24211;49.980;19.776;2024-02-26T06:21:42;5.30;99.90
38428;DHT22;24211;49.980;19.776;2024-02-26T06:24:35;5.40;99.90
38428;DHT22;24211;49.980;19.776;2024-02-26T06:27:02;5.30;99.90
38428;DHT22;24211;49.980;19.776;2024-02-26T06:32:54;5.40;99.90
38428;DHT22;24211;49.980;19.776;2024-02-26T06:35:22;5.40;99.90
38428;DHT22;24211;49.980;19.776;2024-02-26T06:37:49;5.40;99.90
38428;DHT22;24211;49.980;19.776;2024-02-26T06:40:31;5.40;99.90
38428;DHT22;24211;49.980;19.776;2024-02-26T06:43:24;5.40;99.90
38428;DHT22;24211;49.980;19.776;2024-02-26T06:45:51;5.40;99.90
38428;DHT22;24211;49.980;19.776;2024-02-26T06:48:24;5.40;99.90
38428;DHT22;24211;49.980;19.776;2024-02-26T06:50:51;5.40;99.90
38428;DHT22;24211;49.980;19.776;2024-02-26T06:53:18;5.40;99.90
38428;DHT22;24211;49.980;19.776;2024-02-26T06:59:07;5.30;99.90
38428;DHT22;24211;49.980;19.776;2024-02-26T07:01:35;5.30;99.90
38428;DHT22;24211;49.980;19.776;2024-02-26T07:04:02;4.90;99.90
38428;DHT22;24211;49.980;19.776;2024-02-26T07:06:30;4.80;99.90
38428;DHT22;24211;49.980;19.776;2024-02-26T07:08:57;5.10;99.90
38428;DHT22;24211;49.980;19.776;2024-02-26T07:11:24;5.30;99.90
38428;DHT22;24211;49.980;19.776;2024-02-26T07:13:51;5.40;99.90
38428;DHT22;24211;49.980;19.776;2024-02-26T07:16:44;5.50;99.90
38428;DHT22;24211;49.980;19.776;2024-02-26T07:19:44;5.60;99.90
38428;DHT22;24211;49.980;19.776;2024-02-26T07:22:11;5.70;99.90
38428;DHT22;24211;49.980;19.776;2024-02-26T07:25:00;5.80;99.90
38428;DHT22;24211;49.980;19.776;2024-02-26T07:27:57;5.80;99.90
38428;DHT22;24211;49.980;19.776;2024-02-26T07:30:24;5.90;99.90
38428;DHT22;24211;49.980;19.776;2024-02-26T07:32:56;5.90;99.90
38428;DHT22;24211;49.980;19.776;2024-02-26T07:35:23;5.90;99.90
38428;DHT22;24211;49.980;19.776;2024-02-26T07:37:51;6.00;99.90
38428;DHT22;24211;49.980;19.776;2024-02-26T07:40:43;6.00;99.90
38428;DHT22;24211;49.980;19.776;2024-02-26T07:43:25;6.00;99.90
38428;DHT22;24211;49.980;19.776;2024-02-26T07:46:13;6.10;99.90
38428;DHT22;24211;49.980;19.776;2024-02-26T07:48:40;6.10;99.90
38428;DHT22;24211;49.980;19.776;2024-02-26T07:51:11;6.10;99.90
38428;DHT22;24211;49.980;19.776;2024-02-26T07:53:40;6.10;99.90
38428;DHT22;24211;49.980;19.776;2024-02-26T07:56:09;6.20;99.90
38428;DHT22;24211;49.980;19.776;2024-02-26T07:58:39;6.20;99.90
38428;DHT22;24211;49.980;19.776;2024-02-26T08:01:07;6.30;99.90
38428;DHT22;24211;49.980;19.776;2024-02-26T08:03:37;6.30;99.90
38428;DHT22;24211;49.980;19.776;2024-02-26T08:06:05;6.40;99.90
38428;DHT22;24211;49.980;19.776;2024-02-26T08:08:34;6.50;99.90
38428;DHT22;24211;49.980;19.776;2024-02-26T08:11:02;6.50;99.90
38428;DHT22;24211;49.980;19.776;2024-02-26T08:13:30;6.50;99.90
38428;DHT22;24211;49.980;19.776;2024-02-26T08:15:58;6.60;99.90
38428;DHT22;24211;49.980;19.776;2024-02-26T08:18:26;6.60;99.90
38428;DHT22;24211;49.980;19.776;2024-02-26T08:20:54;6.70;99.90
38428;DHT22;24211;49.980;19.776;2024-02-26T08:23:22;6.70;99.90
38428;DHT22;24211;49.980;19.776;2024-02-26T08:25:49;6.80;99.90
38428;DHT22;24211;49.980;19.776;2024-02-26T08:28:17;6.80;99.90
38428;DHT22;24211;49.980;19.776;2024-02-26T08:30:45;6.90;99.90
38428;DHT22;24211;49.980;19.776;2024-02-26T08:33:14;7.00;99.90
38428;DHT22;24211;49.980;19.776;2024-02-26T08:35:41;7.10;99.90
38428;DHT22;24211;49.980;19.776;2024-02-26T08:38:08;7.10;99.90
38428;DHT22;24211;49.980;19.776;2024-02-26T08:40:36;7.30;99.90
38428;DHT22;24211;49.980;19.776;2024-02-26T08:43:04;7.40;99.90
38428;DHT22;24211;49.980;19.776;2024-02-26T08:45:31;7.60;99.90
38428;DHT22;24211;49.980;19.776;2024-02-26T08:47:58;7.80;99.90
38428;DHT22;24211;49.980;19.776;2024-02-26T08:50:26;8.00;99.90
38428;DHT22;24211;49.980;19.776;2024-02-26T08:52:53;8.20;99.90
38428;DHT22;24211;49.980;19.776;2024-02-26T08:55:21;8.40;99.90
38428;DHT22;24211;49.980;19.776;2024-02-26T08:57:48;8.40;99.90
38428;DHT22;24211;49.980;19.776;2024-02-26T09:00:16;8.50;99.90
38428;DHT22;24211;49.980;19.776;2024-02-26T09:02:45;8.60;99.90
38428;DHT22;24211;49.980;19.776;2024-02-26T09:05:13;8.80;99.90
38428;DHT22;24211;49.980;19.776;2024-02-26T09:07:41;8.90;99.90
38428;DHT22;24211;49.980;19.776;2024-02-26T09:10:09;9.10;99.90
38428;DHT22;24211;49.980;19.776;2024-02-26T09:12:38;9.20;99.90
38428;DHT22;24211;49.980;19.776;2024-02-26T09:15:07;9.30;99.90
38428;DHT22;24211;49.980;19.776;2024-02-26T09:17:35;9.50;99.90
38428;DHT22;24211;49.980;19.776;2024-02-26T09:20:04;9.50;99.90
38428;DHT22;24211;49.980;19.776;2024-02-26T09:22:32;9.70;99.90
38428;DHT22;24211;49.980;19.776;2024-02-26T09:25:01;9.70;99.90
38428;DHT22;24211;49.980;19.776;2024-02-26T09:27:29;9.70;99.90
38428;DHT22;24211;49.980;19.776;2024-02-26T09:29:57;9.70;99.90
38428;DHT22;24211;49.980;19.776;2024-02-26T09:32:25;9.70;99.90
38428;DHT22;24211;49.980;19.776;2024-02-26T09:34:53;9.80;99.90
38428;DHT22;24211;49.980;19.776;2024-02-26T09:37:20;9.80;99.90
38428;DHT22;24211;49.980;19.776;2024-02-26T09:39:48;9.90;99.90
38428;DHT22;24211;49.980;19.776;2024-02-26T09:42:18;9.90;99.90
38428;DHT22;24211;49.980;19.776;2024-02-26T09:44:48;10.10;99.90
38428;DHT22;24211;49.980;19.776;2024-02-26T09:47:22;10.10;99.90
38428;DHT22;24211;49.980;19.776;2024-02-26T09:49:52;10.30;99.90
38428;DHT22;24211;49.980;19.776;2024-02-26T09:52:20;10.30;99.90
38428;DHT22;24211;49.980;19.776;2024-02-26T09:54:48;10.40;99.90
38428;DHT22;24211;49.980;19.776;2024-02-26T09:57:17;10.60;99.90
38428;DHT22;24211;49.980;19.776;2024-02-26T09:59:46;10.70;99.90
38428;DHT22;24211;49.980;19.776;2024-02-26T10:02:17;10.90;99.90
38428;DHT22;24211;49.980;19.776;2024-02-26T10:04:48;11.00;99.90
38428;DHT22;24211;49.980;19.776;2024-02-26T10:07:19;11.20;99.90
38428;DHT22;24211;49.980;19.776;2024-02-26T10:09:47;11.30;99.90
38428;DHT22;24211;49.980;19.776;2024-02-26T10:12:18;11.40;99.90
38428;DHT22;24211;49.980;19.776;2024-02-26T10:14:58;11.50;99.90
38428;DHT22;24211;49.980;19.776;2024-02-26T10:17:29;11.60;99.90
38428;DHT22;24211;49.980;19.776;2024-02-26T10:20:22;11.70;99.90
38428;DHT22;24211;49.980;19.776;2024-02-26T10:22:51;12.30;99.90
38428;DHT22;24211;49.980;19.776;2024-02-26T10:25:22;12.60;99.90
38428;DHT22;24211;49.980;19.776;2024-02-26T10:27:50;12.70;99.90
38428;DHT22;24211;49.980;19.776;2024-02-26T10:30:22;12.70;99.90
38428;DHT22;24211;49.980;19.776;2024-02-26T10:32:51;12.60;99.90
38428;DHT22;24211;49.980;19.776;2024-02-26T10:35:46;12.60;99.90
38428;DHT22;24211;49.980;19.776;2024-02-26T10:38:14;12.70;99.90
38428;DHT22;24211;49.980;19.776;2024-02-26T10:41:27;12.80;99.90
38428;DHT22;24211;49.980;19.776;2024-02-26T10:44:02;12.90;99.90
38428;DHT22;24211;49.980;19.776;2024-02-26T10:46:30;13.00;99.90
38428;DHT22;24211;49.980;19.776;2024-02-26T10:49:44;13.10;99.90
38428;DHT22;24211;49.980;19.776;2024-02-26T10:52:54;13.20;99.90
38428;DHT22;24211;49.980;19.776;2024-02-26T10:55:22;13.40;99.90
38428;DHT22;24211;49.980;19.776;2024-02-26T10:57:52;13.40;99.90
38428;DHT22;24211;49.980;19.776;2024-02-26T11:04:15;13.70;99.90
38428;DHT22;24211;49.980;19.776;2024-02-26T11:07:09;14.00;99.90
38428;DHT22;24211;49.980;19.776;2024-02-26T11:09:57;14.10;99.90
38428;DHT22;24211;49.980;19.776;2024-02-26T11:12:42;14.20;99.90
38428;DHT22;24211;49.980;19.776;2024-02-26T11:18:05;14.30;99.90
38428;DHT22;24211;49.980;19.776;2024-02-26T11:24:26;14.90;99.90
38428;DHT22;24211;49.980;19.776;2024-02-26T11:27:01;15.10;99.90
38428;DHT22;24211;49.980;19.776;2024-02-26T11:29:38;15.20;99.90
38428;DHT22;24211;49.980;19.776;2024-02-26T11:32:37;15.40;99.90
38428;DHT22;24211;49.980;19.776;2024-02-26T11:35:06;15.60;99.90
38428;DHT22;24211;49.980;19.776;2024-02-26T11:37:35;15.70;99.90
38428;DHT22;24211;49.980;19.776;2024-02-26T11:40:27;15.70;99.90
38428;DHT22;24211;49.980;19.776;2024-02-26T11:42:59;15.70;99.90
38428;DHT22;24211;49.980;19.776;2024-02-26T11:48:14;15.60;99.90
38428;DHT22;24211;49.980;19.776;2024-02-26T11:51:32;15.70;99.90
38428;DHT22;24211;49.980;19.776;2024-02-26T12:00:40;16.00;99.90
38428;DHT22;24211;49.980;19.776;2024-02-26T12:03:15;16.00;99.90
38428;DHT22;24211;49.980;19.776;2024-02-26T12:05:43;16.00;99.90
38428;DHT22;24211;49.980;19.776;2024-02-26T12:08:36;16.00;99.90
38428;DHT22;24211;49.980;19.776;2024-02-26T12:11:15;15.90;99.90
38428;DHT22;24211;49.980;19.776;2024-02-26T12:13:47;15.90;99.90
38428;DHT22;24211;49.980;19.776;2024-02-26T12:16:52;16.00;99.90
38428;DHT22;24211;49.980;19.776;2024-02-26T12:19:46;16.00;99.90
38428;DHT22;24211;49.980;19.776;2024-02-26T12:22:17;16.10;99.90
38428;DHT22;24211;49.980;19.776;2024-02-26T12:24:58;16.10;99.90
38428;DHT22;24211;49.980;19.776;2024-02-26T12:28:05;16.10;99.90
38428;DHT22;24211;49.980;19.776;2024-02-26T12:31:22;16.10;99.90
38428;DHT22;24211;49.980;19.776;2024-02-26T12:33:51;16.20;99.90
38428;DHT22;24211;49.980;19.776;2024-02-26T12:36:19;16.30;99.90
38428;DHT22;24211;49.980;19.776;2024-02-26T12:38:47;16.40;99.90
38428;DHT22;24211;49.980;19.776;2024-02-26T12:41:18;16.50;99.90
38428;DHT22;24211;49.980;19.776;2024-02-26T12:43:49;16.60;99.90
38428;DHT22;24211;49.980;19.776;2024-02-26T12:46:49;16.70;99.90
38428;DHT22;24211;49.980;19.776;2024-02-26T12:49:16;16.80;99.90
38428;DHT22;24211;49.980;19.776;2024-02-26T12:52:02;16.80;99.90
38428;DHT22;24211;49.980;19.776;2024-02-26T12:55:25;16.80;99.90
38428;DHT22;24211;49.980;19.776;2024-02-26T12:57:54;16.80;99.90
38428;DHT22;24211;49.980;19.776;2024-02-26T13:00:25;16.80;99.90
38428;DHT22;24211;49.980;19.776;2024-02-26T13:02:54;16.80;99.90
38428;DHT22;24211;49.980;19.776;2024-02-26T13:05:23;17.00;99.90
38428;DHT22;24211;49.980;19.776;2024-02-26T13:08:00;17.00;99.90
38428;DHT22;24211;49.980;19.776;2024-02-26T13:10:55;17.10;99.90
38428;DHT22;24211;49.980;19.776;2024-02-26T13:17:32;17.20;99.90
38428;DHT22;24211;49.980;19.776;2024-02-26T13:23:55;17.20;99.90
38428;DHT22;24211;49.980;19.776;2024-02-26T13:26:22;17.20;99.90
38428;DHT22;24211;49.980;19.776;2024-02-26T13:29:20;17.20;99.90
38428;DHT22;24211;49.980;19.776;2024-02-26T13:31:47;17.20;99.90
38428;DHT22;24211;49.980;19.776;2024-02-26T13:34:41;17.20;99.90
38428;DHT22;24211;49.980;19.776;2024-02-26T13:37:09;17.20;99.90
38428;DHT22;24211;49.980;19.776;2024-02-26T13:39:44;17.20;99.90
38428;DHT22;24211;49.980;19.776;2024-02-26T13:46:19;17.20;99.90
38428;DHT22;24211;49.980;19.776;2024-02-26T13:48:46;17.10;99.90
38428;DHT22;24211;49.980;19.776;2024-02-26T13:51:14;17.10;99.90
38428;DHT22;24211;49.980;19.776;2024-02-26T13:53:47;17.10;99.90
38428;DHT22;24211;49.980;19.776;2024-02-26T13:56:28;17.10;99.90
38428;DHT22;24211;49.980;19.776;2024-02-26T14:02:17;17.10;99.90
38428;DHT22;24211;49.980;19.776;2024-02-26T14:04:44;17.10;99.90
38428;DHT22;24211;49.980;19.776;2024-02-26T14:07:39;17.10;99.90
38428;DHT22;24211;49.980;19.776;2024-02-26T14:10:07;17.10;99.90
38428;DHT22;24211;49.980;19.776;2024-02-26T14:12:37;17.10;99.90
38428;DHT22;24211;49.980;19.776;2024-02-26T14:15:11;17.10;99.90
38428;DHT22;24211;49.980;19.776;2024-02-26T14:21:09;17.20;99.90
38428;DHT22;24211;49.980;19.776;2024-02-26T14:23:36;17.20;99.90
38428;DHT22;24211;49.980;19.776;2024-02-26T14:30:05;17.30;99.90
38428;DHT22;24211;49.980;19.776;2024-02-26T14:32:33;17.30;99.90
38428;DHT22;24211;49.980;19.776;2024-02-26T14:35:08;17.30;99.90
38428;DHT22;24211;49.980;19.776;2024-02-26T14:37:44;17.30;99.90
38428;DHT22;24211;49.980;19.776;2024-02-26T14:40:16;17.20;99.90
38428;DHT22;24211;49.980;19.776;2024-02-26T14:42:59;17.20;99.90
38428;DHT22;24211;49.980;19.776;2024-02-26T14:45:27;17.20;99.90
38428;DHT22;24211;49.980;19.776;2024-02-26T14:47:55;17.20;99.90
38428;DHT22;24211;49.980;19.776;2024-02-26T14:50:48;17.10;99.90
38428;DHT22;24211;49.980;19.776;2024-02-26T14:53:35;17.10;99.90
38428;DHT22;24211;49.980;19.776;2024-02-26T14:56:04;17.10;99.90
38428;DHT22;24211;49.980;19.776;2024-02-26T14:58:31;17.10;99.90
38428;DHT22;24211;49.980;19.776;2024-02-26T15:00:59;17.10;99.90
38428;DHT22;24211;49.980;19.776;2024-02-26T15:03:26;17.10;99.90
38428;DHT22;24211;49.980;19.776;2024-02-26T15:06:32;17.00;99.90
38428;DHT22;24211;49.980;19.776;2024-02-26T15:08:59;17.00;99.90
38428;DHT22;24211;49.980;19.776;2024-02-26T15:15:35;16.90;99.90
38428;DHT22;24211;49.980;19.776;2024-02-26T15:18:04;16.90;99.90
38428;DHT22;24211;49.980;19.776;2024-02-26T15:20:32;16.90;99.90
38428;DHT22;24211;49.980;19.776;2024-02-26T15:22:59;16.80;99.90
38428;DHT22;24211;49.980;19.776;2024-02-26T15:25:27;16.80;99.90
38428;DHT22;24211;49.980;19.776;2024-02-26T15:32:03;16.70;99.90
38428;DHT22;24211;49.980;19.776;2024-02-26T15:34:32;16.70;99.90
38428;DHT22;24211;49.980;19.776;2024-02-26T15:37:01;16.60;99.90
38428;DHT22;24211;49.980;19.776;2024-02-26T15:39:28;16.60;99.90
38428;DHT22;24211;49.980;19.776;2024-02-26T15:42:00;16.50;99.90
38428;DHT22;24211;49.980;19.776;2024-02-26T15:45:09;16.50;99.90
38428;DHT22;24211;49.980;19.776;2024-02-26T15:47:38;16.40;99.90
38428;DHT22;24211;49.980;19.776;2024-02-26T15:50:06;16.30;99.90
38428;DHT22;24211;49.980;19.776;2024-02-26T15:52:33;16.30;99.90
38428;DHT22;24211;49.980;19.776;2024-02-26T15:55:00;16.30;99.90
38428;DHT22;24211;49.980;19.776;2024-02-26T15:57:28;16.20;99.90
38428;DHT22;24211;49.980;19.776;2024-02-26T15:59:55;16.20;99.90
38428;DHT22;24211;49.980;19.776;2024-02-26T16:03:38;16.20;99.90
38428;DHT22;24211;49.980;19.776;2024-02-26T16:06:20;16.00;99.90
38428;DHT22;24211;49.980;19.776;2024-02-26T16:08:55;16.00;99.90
38428;DHT22;24211;49.980;19.776;2024-02-26T16:14:50;15.90;99.90
38428;DHT22;24211;49.980;19.776;2024-02-26T16:17:37;15.80;99.90
38428;DHT22;24211;49.980;19.776;2024-02-26T16:24:21;15.60;99.90
38428;DHT22;24211;49.980;19.776;2024-02-26T16:26:49;15.50;99.90
38428;DHT22;24211;49.980;19.776;2024-02-26T16:29:16;15.40;99.90
38428;DHT22;24211;49.980;19.776;2024-02-26T16:31:43;15.40;99.90
38428;DHT22;24211;49.980;19.776;2024-02-26T16:40:53;15.10;99.90
38428;DHT22;24211;49.980;19.776;2024-02-26T16:43:20;15.10;99.90
38428;DHT22;24211;49.980;19.776;2024-02-26T16:45:47;15.00;99.90
38428;DHT22;24211;49.980;19.776;2024-02-26T16:48:15;14.90;99.90
38428;DHT22;24211;49.980;19.776;2024-02-26T16:50:42;14.90;99.90
38428;DHT22;24211;49.980;19.776;2024-02-26T16:53:09;14.80;99.90
38428;DHT22;24211;49.980;19.776;2024-02-26T16:55:40;14.70;99.90
38428;DHT22;24211;49.980;19.776;2024-02-26T16:58:09;14.70;99.90
38428;DHT22;24211;49.980;19.776;2024-02-26T17:01:03;14.60;99.90
38428;DHT22;24211;49.980;19.776;2024-02-26T17:03:47;14.60;99.90
38428;DHT22;24211;49.980;19.776;2024-02-26T17:06:18;14.50;99.90
38428;DHT22;24211;49.980;19.776;2024-02-26T17:08:50;14.40;99.90
38428;DHT22;24211;49.980;19.776;2024-02-26T17:11:39;14.30;99.90
38428;DHT22;24211;49.980;19.776;2024-02-26T17:14:06;14.20;99.90
38428;DHT22;24211;49.980;19.776;2024-02-26T17:16:38;14.20;99.90
38428;DHT22;24211;49.980;19.776;2024-02-26T17:19:05;14.10;99.90
38428;DHT22;24211;49.980;19.776;2024-02-26T17:21:33;14.00;99.90
38428;DHT22;24211;49.980;19.776;2024-02-26T17:24:00;14.00;99.90
38428;DHT22;24211;49.980;19.776;2024-02-26T17:26:28;14.00;99.90
38428;DHT22;24211;49.980;19.776;2024-02-26T17:28:55;13.90;99.90
38428;DHT22;24211;49.980;19.776;2024-02-26T17:31:34;13.80;99.90
38428;DHT22;24211;49.980;19.776;2024-02-26T17:34:34;13.80;99.90
38428;DHT22;24211;49.980;19.776;2024-02-26T17:38:00;13.70;99.90
38428;DHT22;24211;49.980;19.776;2024-02-26T17:40:28;13.70;99.90
38428;DHT22;24211;49.980;19.776;2024-02-26T17:43:17;13.60;99.90
38428;DHT22;24211;49.980;19.776;2024-02-26T17:45:47;13.60;99.90
38428;DHT22;24211;49.980;19.776;2024-02-26T17:48:21;13.60;99.90
38428;DHT22;24211;49.980;19.776;2024-02-26T17:51:13;13.50;99.90
38428;DHT22;24211;49.980;19.776;2024-02-26T17:53:40;13.50;99.90
38428;DHT22;24211;49.980;19.776;2024-02-26T17:56:08;13.40;99.90
38428;DHT22;24211;49.980;19.776;2024-02-26T17:58:38;13.40;99.90
38428;DHT22;24211;49.980;19.776;2024-02-26T18:01:11;13.40;99.90
38428;DHT22;24211;49.980;19.776;2024-02-26T18:03:49;13.30;99.90